EGPD/ABZ METAR and TAF weather

Enter ICAO airport designator
Station Type Date Time Source
EGPD METAR 2018/10/21 03:50 UTC NOAA

EGPD 210350Z AUTO 21011KT 9999 NCD 15/12 Q1017 NOSIG


Station Type Date Time Source
EGPD Decoded METAR 2018/10/21 03:50 UTC NOAA

Aberdeen / Dyce, United Kingdom (EGPD) 57-12N 002-13W 0M
Oct 20, 2018 - 11:50 PM EDT / 2018.10.21 0350 UTC
Wind: from the SSW (210 degrees) at 13 MPH (11 KT):0
Visibility: greater than 7 mile(s):0
Temperature: 59 F (15 C)
Dew Point: 53 F (12 C)
Relative Humidity: 82%
Pressure (altimeter): 30.03 in. Hg (1017 hPa)
ob: EGPD 210350Z AUTO 21011KT 9999 NCD 15/12 Q1017 NOSIG
cycle: 4

Station Type Date Time Source
EGPD TAF 2018/10/20 18:09 UTC NOAA

TAF EGPD 201700Z 2018/2118 19010KT 9999 FEW040
BECMG 2107/2110 29010KT
TEMPO 2107/2110 6000 -RADZ BKN008


Example: see airport list